Aérodrome :
LOGIN :

S'inscrire | Disclaimer

   EN    FR    IT 

 










Légende :    VFR   VFR Marginal   IFR   IFR Intensif   IFR Très Intensif
Visi : 
Plafond : 
>= 8 km
>= 3000ft
5 à 8 km
1000 à 3000 ft
1500m à 5 km
500 à 1000 ft
800 à 1500m
200 à 500 ft
< 800m
< 200 ft
Symboles :   Orages  Brouillard  Fortes neiges  Fortes précipitations  Vent > 20 kt
SIGMETs :   Divers  Orages  Givrage  Turbulence  Onde Orograph.  Cendres Volcan.






- Altitude de l'aérodrome : 146 ft
- Code IATA : RKE


EKRK - Roskilde Tune

DERNIER METAR :
  • 241150Z AUTO 27010KT 9999 BKN170/// 05/01 Q1012

METARs EXPIRÉS :
  • 241120Z AUTO 28010KT 9999 BKN190/// BKN220/// 06/01 Q1012
  • 241050Z AUTO 29011KT 9999 BKN180/// 05/01 Q1012
  • 241020Z AUTO 29011KT 9999 FEW020/// SCT210/// 05/01 Q1012
  • 240950Z AUTO 28012KT 9999 SCT018/// BKN210/// 05/01 Q1013
  • 240920Z AUTO 29010KT 9999 SCT220/// 05/02 Q1013

TAF TAF EKRK
Valide du 24 à 12h jusqu'au 24 à 21h UTC


241121Z 2412/2421 24012KT 9999 SCT025
BECMG 2418/2421 15018G28KT 3000 -RA BKN005



MET'MAP, la Météo Aéronautique d'un coup d'oeil ! - Copyright ORBIFLY Décembre 2007 - Disclaimer

ORBIFLY MET'MAP TEAM :

Programmation & Développement : Alexandra Zaïnal
Sur une idée originale de : Baudouin d'Aumeries
Assistance à la programmation : Marc-Olivier Méhu
Soutien technique & logistique : Manuel Goepfert

Contact : metmap@orbifly.com




SOURCES & CREDITS :

   NOAA